Time;durP1;ratioP1;P1;durP2;ratioP2;P2;SDS_P1;SDS_P2;PMS_P1;PMS_P2;Temp;Humidity;BMP_temperature;BMP_pressure;BME280_temperature;BME280_humidity;BME280_pressure;Samples;Min_cycle;Max_cycle;Signal;HPM_P1;HPM_P2
2023/01/20 00:01:23;;;;;;;3.50;2.40;;;1.70;99.90;;;;;;5111587;27;20208;-84
2023/01/20 00:03:49;;;;;;;5.50;2.53;;;1.60;99.90;;;;;;5114855;27;20188;-82
2023/01/20 00:06:15;;;;;;;4.13;2.17;;;1.60;99.90;;;;;;5113247;27;20292;-81
2023/01/20 00:08:41;;;;;;;3.72;2.25;;;1.60;99.90;;;;;;5110022;27;20632;-82
2023/01/20 00:11:09;;;;;;;5.60;2.50;;;1.60;99.90;;;;;;5112721;27;20204;-81
2023/01/20 00:13:36;;;;;;;6.75;2.90;;;1.60;99.90;;;;;;5110213;27;20200;-81
2023/01/20 00:16:06;;;;;;;4.68;2.50;;;1.60;99.90;;;;;;5097527;27;20778;-84
2023/01/20 00:18:33;;;;;;;4.72;2.15;;;1.60;99.90;;;;;;5111672;27;20192;-82
2023/01/20 00:21:09;;;;;;;3.40;2.28;;;1.50;99.90;;;;;;5097565;27;20192;-82
2023/01/20 00:23:34;;;;;;;9.23;3.58;;;1.50;99.90;;;;;;5096043;27;20184;-81
2023/01/20 00:26:23;;;;;;;8.38;3.42;;;1.50;99.90;;;;;;5094656;27;20698;-81
2023/01/20 00:28:51;;;;;;;9.55;3.78;;;1.50;99.90;;;;;;5111533;27;20169;-84
2023/01/20 00:31:18;;;;;;;5.47;2.95;;;1.50;99.90;;;;;;5111785;27;20213;-82
2023/01/20 00:33:45;;;;;;;11.20;4.45;;;1.60;99.90;;;;;;5110843;27;20628;-83
2023/01/20 00:36:12;;;;;;;8.90;4.43;;;1.50;99.90;;;;;;5095909;27;20277;-81
2023/01/20 00:38:39;;;;;;;10.80;5.15;;;1.50;99.90;;;;;;5093668;27;20204;-83
2023/01/20 00:41:05;;;;;;;8.13;4.22;;;1.50;99.90;;;;;;5108942;27;20180;-82
2023/01/20 00:43:31;;;;;;;7.90;4.18;;;1.50;99.90;;;;;;5112714;27;20762;-81
2023/01/20 00:45:57;;;;;;;7.97;3.53;;;1.40;99.90;;;;;;5093735;27;20184;-84
2023/01/20 00:48:22;;;;;;;8.20;4.03;;;1.40;99.90;;;;;;5110561;27;20213;-80
2023/01/20 00:50:48;;;;;;;7.10;4.22;;;1.40;99.90;;;;;;5107760;27;20231;-81
2023/01/20 00:53:14;;;;;;;9.65;5.20;;;1.40;99.90;;;;;;5110088;27;20270;-81
2023/01/20 00:55:40;;;;;;;8.15;4.78;;;1.40;99.90;;;;;;5097416;27;20731;-81
2023/01/20 00:58:06;;;;;;;8.02;4.40;;;1.40;99.90;;;;;;5108230;27;20547;-83
2023/01/20 01:00:31;;;;;;;7.15;4.05;;;1.40;99.90;;;;;;5111473;27;20245;-80
2023/01/20 01:02:57;;;;;;;9.05;5.05;;;1.40;99.90;;;;;;5083880;27;20184;-80
2023/01/20 01:05:23;;;;;;;8.70;4.95;;;1.30;99.90;;;;;;5111249;27;20223;-82
2023/01/20 01:07:49;;;;;;;12.13;5.38;;;1.30;99.90;;;;;;5108983;27;20227;-82
2023/01/20 01:10:15;;;;;;;6.70;4.88;;;1.30;99.90;;;;;;5112169;27;20243;-83
2023/01/20 01:12:41;;;;;;;10.23;6.28;;;1.30;99.90;;;;;;5108935;27;20184;-81
2023/01/20 01:15:07;;;;;;;10.13;6.38;;;1.30;99.90;;;;;;5098086;27;20180;-81
2023/01/20 01:17:33;;;;;;;13.60;6.40;;;1.30;99.90;;;;;;5114528;27;20437;-81
2023/01/20 01:19:59;;;;;;;14.35;7.38;;;1.30;99.90;;;;;;5117042;27;21128;-80
2023/01/20 01:22:24;;;;;;;15.23;8.00;;;1.30;99.90;;;;;;5115142;27;20192;-81
2023/01/20 01:24:50;;;;;;;14.55;7.93;;;1.40;99.90;;;;;;5111339;27;20364;-80
2023/01/20 01:27:16;;;;;;;14.00;7.97;;;1.40;99.90;;;;;;5076932;27;20189;-81
2023/01/20 01:29:42;;;;;;;16.33;8.77;;;1.40;99.90;;;;;;5113893;27;20315;-82
2023/01/20 01:32:07;;;;;;;17.27;8.98;;;1.40;99.90;;;;;;5109081;27;20184;-79
2023/01/20 01:34:33;;;;;;;19.50;9.05;;;1.40;99.90;;;;;;5110461;27;20233;-82
2023/01/20 01:36:59;;;;;;;16.95;9.57;;;1.40;99.90;;;;;;5094983;27;20189;-81
2023/01/20 01:39:26;;;;;;;19.30;9.50;;;1.40;99.90;;;;;;5110323;27;20203;-80
2023/01/20 01:41:51;;;;;;;18.63;9.50;;;1.40;99.90;;;;;;5095643;27;20193;-81
2023/01/20 01:44:19;;;;;;;16.13;8.65;;;1.50;99.90;;;;;;5111552;27;21205;-80
2023/01/20 01:46:45;;;;;;;17.25;9.27;;;1.50;99.90;;;;;;5109151;27;20231;-82
2023/01/20 01:49:31;;;;;;;17.15;9.63;;;1.50;99.90;;;;;;5114831;27;20216;-81
2023/01/20 01:52:03;;;;;;;24.23;10.15;;;1.50;99.90;;;;;;5107975;27;20252;-82
2023/01/20 01:54:34;;;;;;;15.05;9.07;;;1.50;99.90;;;;;;5112287;27;20885;-80
2023/01/20 01:57:00;;;;;;;16.85;9.50;;;1.50;99.90;;;;;;5110451;27;20695;-80
2023/01/20 01:59:26;;;;;;;16.98;9.55;;;1.50;99.90;;;;;;5110762;27;20728;-80
2023/01/20 02:01:53;;;;;;;17.45;9.95;;;1.50;99.90;;;;;;5092579;28;20270;-80
2023/01/20 02:04:22;;;;;;;16.95;9.35;;;1.60;99.90;;;;;;5115346;27;20185;-80
2023/01/20 02:07:06;;;;;;;16.00;10.05;;;1.50;99.90;;;;;;5112710;27;20189;-82
2023/01/20 02:09:33;;;;;;;15.45;8.93;;;1.50;99.90;;;;;;5098236;27;20214;-80
2023/01/20 02:12:03;;;;;;;14.90;8.93;;;1.50;99.90;;;;;;5080476;28;20212;-81
2023/01/20 02:14:42;;;;;;;19.90;10.23;;;1.40;99.90;;;;;;5096942;28;20180;-83
2023/01/20 02:17:27;;;;;;;16.45;8.88;;;1.40;99.90;;;;;;5110813;28;20180;-79
2023/01/20 02:20:17;;;;;;;15.55;8.60;;;1.40;99.90;;;;;;5094663;28;20298;-80
2023/01/20 02:22:49;;;;;;;15.90;7.88;;;1.40;99.90;;;;;;5108344;28;20172;-79
2023/01/20 02:25:27;;;;;;;16.13;9.05;;;1.40;99.90;;;;;;5113264;28;20324;-80
2023/01/20 02:28:05;;;;;;;15.50;9.00;;;1.30;99.90;;;;;;5110060;27;20181;-81
2023/01/20 02:30:36;;;;;;;12.73;7.38;;;1.30;99.90;;;;;;5109798;28;20681;-81
2023/01/20 02:33:27;;;;;;;15.70;8.38;;;1.30;99.90;;;;;;5109325;28;20185;-80
2023/01/20 02:36:06;;;;;;;17.60;7.88;;;1.30;99.90;;;;;;5113368;27;20261;-79
2023/01/20 02:38:31;;;;;;;14.75;9.35;;;1.30;99.90;;;;;;5115878;27;20596;-83
2023/01/20 02:41:15;;;;;;;15.80;9.32;;;1.30;99.90;;;;;;5116754;27;20275;-83
2023/01/20 02:43:50;;;;;;;16.17;8.52;;;1.30;99.90;;;;;;5117716;27;20188;-81
2023/01/20 02:46:39;;;;;;;18.65;9.10;;;1.30;99.90;;;;;;5112107;27;20186;-82
2023/01/20 02:49:33;;;;;;;17.65;9.48;;;1.30;99.90;;;;;;5114150;27;20180;-82
2023/01/20 02:52:25;;;;;;;16.52;9.45;;;1.30;99.90;;;;;;5116376;27;20207;-79
2023/01/20 02:54:55;;;;;;;16.77;9.23;;;1.20;99.90;;;;;;5114406;27;20609;-79
2023/01/20 02:57:29;;;;;;;16.83;9.88;;;1.30;99.90;;;;;;5112557;27;20216;-79
2023/01/20 03:00:06;;;;;;;15.98;10.13;;;1.30;99.90;;;;;;5112285;27;20232;-86
2023/01/20 03:02:34;;;;;;;16.90;10.43;;;1.30;99.90;;;;;;5100979;27;20267;-80
2023/01/20 03:05:06;;;;;;;19.55;11.10;;;1.30;99.90;;;;;;5122155;27;20185;-81
2023/01/20 03:07:35;;;;;;;21.60;11.88;;;1.30;99.90;;;;;;5113304;27;20172;-80
2023/01/20 03:10:05;;;;;;;19.33;11.35;;;1.40;99.90;;;;;;5097291;27;20695;-82
2023/01/20 03:13:01;;;;;;;21.25;11.88;;;1.40;99.90;;;;;;5112203;27;20177;-80
2023/01/20 03:15:55;;;;;;;18.40;12.32;;;1.40;99.90;;;;;;5111527;27;20206;-80
2023/01/20 03:18:21;;;;;;;21.15;11.10;;;1.40;99.90;;;;;;5099023;27;20245;-80
2023/01/20 03:20:47;;;;;;;19.52;12.25;;;1.40;99.90;;;;;;5111480;27;20609;-83
2023/01/20 03:23:13;;;;;;;22.27;13.35;;;1.30;99.90;;;;;;5112095;27;20180;-80
2023/01/20 03:25:39;;;;;;;20.42;12.30;;;1.40;99.90;;;;;;5116741;27;20181;-81
2023/01/20 03:28:05;;;;;;;19.75;12.80;;;1.40;99.90;;;;;;5133303;27;20184;-82
2023/01/20 03:30:31;;;;;;;22.27;12.50;;;1.40;99.90;;;;;;5112990;27;20231;-81
2023/01/20 03:32:57;;;;;;;19.42;12.13;;;1.30;99.90;;;;;;5092893;27;20181;-81
2023/01/20 03:35:23;;;;;;;21.27;12.95;;;1.40;99.90;;;;;;5094731;27;20185;-80
2023/01/20 03:37:49;;;;;;;20.52;12.23;;;1.40;99.90;;;;;;5099419;27;20188;-82
2023/01/20 03:40:15;;;;;;;23.52;12.57;;;1.40;99.90;;;;;;5082695;27;20705;-83
2023/01/20 03:42:56;;;;;;;22.77;13.35;;;1.40;99.90;;;;;;5098533;27;20215;-80
2023/01/20 03:45:39;;;;;;;24.08;13.45;;;1.50;99.90;;;;;;5110532;27;20255;-80
2023/01/20 03:48:31;;;;;;;26.70;14.60;;;1.50;99.90;;;;;;5112702;27;20176;-81
2023/01/20 03:51:04;;;;;;;26.63;14.93;;;1.50;99.90;;;;;;5128469;27;21174;-80
2023/01/20 03:53:54;;;;;;;24.75;13.85;;;1.50;99.90;;;;;;5112850;27;20180;-79
2023/01/20 03:56:26;;;;;;;26.88;14.77;;;1.50;99.90;;;;;;5110021;27;20699;-80
2023/01/20 03:58:54;;;;;;;28.67;15.40;;;1.50;99.90;;;;;;5112731;27;20200;-79
2023/01/20 04:01:24;;;;;;;27.08;15.23;;;1.60;99.90;;;;;;5112452;27;20775;-79
2023/01/20 04:03:53;;;;;;;27.92;14.70;;;1.50;99.90;;;;;;5113374;27;20249;-80
2023/01/20 04:06:22;;;;;;;26.98;14.75;;;1.60;99.90;;;;;;5131778;27;20747;-80
2023/01/20 04:08:57;;;;;;;32.40;16.38;;;1.60;99.90;;;;;;5111503;27;20177;-87
2023/01/20 04:11:23;;;;;;;28.42;15.07;;;1.60;99.90;;;;;;5115671;27;20390;-81
2023/01/20 04:13:49;;;;;;;28.58;15.20;;;1.70;99.90;;;;;;5110527;27;20704;-80
2023/01/20 04:16:17;;;;;;;30.27;16.67;;;1.60;99.90;;;;;;5110284;27;20713;-81
2023/01/20 04:18:46;;;;;;;30.60;16.02;;;1.70;99.90;;;;;;5112670;27;20187;-80
2023/01/20 04:21:22;;;;;;;33.80;17.70;;;1.70;99.90;;;;;;5114159;27;20202;-82
2023/01/20 04:24:24;;;;;;;29.38;17.55;;;1.60;99.90;;;;;;5112372;27;20181;-81
2023/01/20 04:26:50;;;;;;;31.73;17.40;;;1.60;99.90;;;;;;5110749;27;20173;-82
2023/01/20 04:29:15;;;;;;;30.60;16.40;;;1.60;99.90;;;;;;5112409;27;20185;-81
2023/01/20 04:31:41;;;;;;;28.35;17.15;;;1.60;99.90;;;;;;5094402;27;20269;-81
2023/01/20 04:34:14;;;;;;;26.38;14.15;;;1.60;99.90;;;;;;5094555;27;20180;-81
2023/01/20 04:36:40;;;;;;;30.13;15.82;;;1.60;99.90;;;;;;5111811;27;20200;-81
2023/01/20 04:39:06;;;;;;;30.58;16.98;;;1.60;99.90;;;;;;5115044;27;20188;-84
2023/01/20 04:41:32;;;;;;;31.17;16.35;;;1.60;99.90;;;;;;5109662;27;20200;-83
2023/01/20 04:43:58;;;;;;;32.45;15.90;;;1.50;99.90;;;;;;5096580;27;20189;-80
2023/01/20 04:46:24;;;;;;;32.42;16.20;;;1.50;99.90;;;;;;5091438;27;20285;-84
2023/01/20 04:48:49;;;;;;;29.23;15.88;;;1.60;99.90;;;;;;5111156;27;20667;-82
2023/01/20 04:51:15;;;;;;;33.25;16.38;;;1.50;99.90;;;;;;5112435;27;20214;-79
2023/01/20 04:53:41;;;;;;;30.33;17.00;;;1.50;99.90;;;;;;5113433;27;20176;-81
2023/01/20 04:56:11;;;;;;;29.42;15.38;;;1.50;99.90;;;;;;5109329;27;20736;-81
2023/01/20 04:58:38;;;;;;;29.45;16.02;;;1.50;99.90;;;;;;5109925;27;20248;-82
2023/01/20 05:01:03;;;;;;;30.63;16.90;;;1.50;99.90;;;;;;5107762;27;20221;-82
2023/01/20 05:03:29;;;;;;;22.52;12.43;;;1.50;99.90;;;;;;5115103;27;20180;-81
2023/01/20 05:05:55;;;;;;;27.38;15.13;;;1.50;99.90;;;;;;5093040;27;20208;-83
2023/01/20 05:08:21;;;;;;;33.85;15.85;;;1.50;99.90;;;;;;5116009;27;20184;-82
2023/01/20 05:10:47;;;;;;;28.25;15.43;;;1.50;99.90;;;;;;5090531;27;22649;-82
2023/01/20 05:13:13;;;;;;;32.80;15.85;;;1.50;99.90;;;;;;5112374;27;20196;-82
2023/01/20 05:15:39;;;;;;;33.95;14.68;;;1.50;99.90;;;;;;5110398;27;20804;-81
2023/01/20 05:18:05;;;;;;;33.53;16.60;;;1.50;99.90;;;;;;5108563;27;20176;-82
2023/01/20 05:20:31;;;;;;;30.98;15.18;;;1.50;99.90;;;;;;5109646;27;20202;-82
2023/01/20 05:22:57;;;;;;;33.03;17.55;;;1.60;99.90;;;;;;5109774;27;20321;-81
2023/01/20 05:25:23;;;;;;;32.38;15.45;;;1.40;99.90;;;;;;5110126;27;20644;-81
2023/01/20 05:27:48;;;;;;;27.75;14.23;;;1.40;99.90;;;;;;5099653;27;20181;-83
2023/01/20 05:30:15;;;;;;;31.83;15.13;;;1.40;99.90;;;;;;5114856;27;20247;-84
2023/01/20 05:32:40;;;;;;;32.60;15.85;;;1.40;99.90;;;;;;5094183;27;20188;-80
2023/01/20 05:35:07;;;;;;;33.00;16.10;;;1.40;99.90;;;;;;5111741;27;20185;-82
2023/01/20 05:37:33;;;;;;;31.27;14.95;;;1.40;99.90;;;;;;5083143;27;20181;-81
2023/01/20 05:39:58;;;;;;;27.30;13.82;;;1.40;99.90;;;;;;5113076;27;20268;-85
2023/01/20 05:42:24;;;;;;;28.80;15.02;;;1.30;99.90;;;;;;5112370;27;20309;-83
2023/01/20 05:44:50;;;;;;;27.88;13.70;;;1.40;99.90;;;;;;5093742;27;20241;-82
2023/01/20 05:47:16;;;;;;;28.67;14.52;;;1.30;99.90;;;;;;5107196;27;20180;-80
2023/01/20 05:49:41;;;;;;;27.98;15.15;;;1.40;99.90;;;;;;5112472;27;20252;-83
2023/01/20 05:52:07;;;;;;;27.75;14.05;;;1.30;99.90;;;;;;5111898;27;20261;-80
2023/01/20 05:54:33;;;;;;;27.33;12.95;;;1.30;99.90;;;;;;5111619;27;20188;-79
2023/01/20 05:56:58;;;;;;;28.85;14.85;;;1.30;99.90;;;;;;5110004;27;20235;-80
2023/01/20 05:59:24;;;;;;;26.23;13.15;;;1.30;99.90;;;;;;5110741;27;20530;-81
2023/01/20 06:01:50;;;;;;;23.33;12.80;;;1.30;99.90;;;;;;5107479;27;20192;-82
2023/01/20 06:04:16;;;;;;;28.73;13.38;;;1.30;99.90;;;;;;5117235;27;21016;-80
2023/01/20 06:06:41;;;;;;;29.73;15.05;;;1.30;99.90;;;;;;5108075;27;20210;-83
2023/01/20 06:09:09;;;;;;;28.20;14.00;;;1.30;99.90;;;;;;5109947;27;20185;-79
2023/01/20 06:11:35;;;;;;;29.00;15.43;;;1.30;99.90;;;;;;5113457;27;20243;-80
2023/01/20 06:14:01;;;;;;;38.20;17.23;;;1.30;99.90;;;;;;5109116;28;20263;-82
2023/01/20 06:16:27;;;;;;;28.63;14.77;;;1.30;99.90;;;;;;5077719;28;20693;-82
2023/01/20 06:18:52;;;;;;;33.80;18.05;;;1.30;99.90;;;;;;5095547;28;20275;-83
2023/01/20 06:21:18;;;;;;;34.83;17.40;;;1.30;99.90;;;;;;5109836;28;20268;-84
2023/01/20 06:23:44;;;;;;;35.88;17.98;;;1.30;99.90;;;;;;5095850;28;20189;-80
2023/01/20 06:26:12;;;;;;;32.70;15.90;;;1.40;99.90;;;;;;5092580;28;20188;-84
2023/01/20 06:28:38;;;;;;;38.28;16.95;;;1.30;99.90;;;;;;5109711;28;20180;-79
2023/01/20 06:31:13;;;;;;;32.95;16.30;;;1.30;99.90;;;;;;5109021;28;20713;-79
2023/01/20 06:33:39;;;;;;;33.95;16.80;;;1.20;99.90;;;;;;5107686;28;20168;-83
2023/01/20 06:36:07;;;;;;;37.40;17.90;;;1.30;99.90;;;;;;5111745;27;20172;-83
2023/01/20 06:38:34;;;;;;;30.73;15.85;;;1.20;99.90;;;;;;5108892;28;20241;-83
2023/01/20 06:41:05;;;;;;;30.63;15.32;;;1.20;99.90;;;;;;5093810;28;20192;-80
2023/01/20 06:43:33;;;;;;;25.65;11.98;;;1.20;99.90;;;;;;5092626;28;20186;-86
2023/01/20 06:46:03;;;;;;;31.75;15.43;;;1.20;99.90;;;;;;5108878;27;20178;-80
2023/01/20 06:48:30;;;;;;;35.17;16.35;;;1.20;99.90;;;;;;5110896;28;20238;-82
2023/01/20 06:51:19;;;;;;;30.83;15.25;;;1.20;99.90;;;;;;5107820;28;20224;-84
2023/01/20 06:53:45;;;;;;;31.08;15.10;;;1.20;99.90;;;;;;5111087;28;20305;-80
2023/01/20 06:56:12;;;;;;;39.60;18.90;;;1.20;99.90;;;;;;5109570;28;20205;-80
2023/01/20 06:58:39;;;;;;;31.10;15.82;;;1.10;99.90;;;;;;5114034;27;20223;-80
2023/01/20 07:01:12;;;;;;;31.95;16.20;;;1.20;99.90;;;;;;5106826;28;20268;-80
2023/01/20 07:03:37;;;;;;;34.53;16.88;;;1.20;99.90;;;;;;5110370;28;20219;-79
2023/01/20 07:06:14;;;;;;;29.45;14.98;;;1.20;99.90;;;;;;5106819;28;20347;-84
2023/01/20 07:08:44;;;;;;;32.95;17.05;;;1.20;99.90;;;;;;5109401;27;20272;-80
2023/01/20 07:11:10;;;;;;;32.90;16.15;;;1.10;99.90;;;;;;5110466;28;20285;-80
2023/01/20 07:13:36;;;;;;;36.60;16.80;;;1.10;99.90;;;;;;5094346;28;20582;-79
2023/01/20 07:16:02;;;;;;;35.03;17.33;;;1.20;99.90;;;;;;5107453;28;20185;-83
2023/01/20 07:18:28;;;;;;;35.58;17.83;;;1.20;99.90;;;;;;5078203;28;20794;-79
2023/01/20 07:20:55;;;;;;;36.10;18.88;;;1.20;99.90;;;;;;5094377;27;20564;-80
2023/01/20 07:23:21;;;;;;;38.72;18.90;;;1.20;99.90;;;;;;5111099;27;20628;-78
2023/01/20 07:25:55;;;;;;;41.08;20.23;;;1.20;99.90;;;;;;5111223;27;22739;-82
2023/01/20 07:28:20;;;;;;;39.47;18.92;;;1.20;99.90;;;;;;5113407;27;20319;-79
2023/01/20 07:30:46;;;;;;;35.45;18.63;;;1.20;99.90;;;;;;5110638;27;20235;-81
2023/01/20 07:33:12;;;;;;;34.13;18.92;;;1.20;99.90;;;;;;5095362;27;20185;-78
2023/01/20 07:35:38;;;;;;;37.03;18.35;;;1.20;99.90;;;;;;5109416;27;20191;-80
2023/01/20 07:38:03;;;;;;;36.08;18.50;;;1.20;99.90;;;;;;5109956;27;20199;-77
2023/01/20 07:40:29;;;;;;;38.33;18.30;;;1.20;99.90;;;;;;5112074;27;20180;-79
2023/01/20 07:42:55;;;;;;;43.00;18.55;;;1.20;99.90;;;;;;5112014;27;20596;-79
2023/01/20 07:45:20;;;;;;;38.72;19.05;;;1.20;99.90;;;;;;5107525;27;20204;-79
2023/01/20 07:47:46;;;;;;;39.97;18.23;;;1.20;99.90;;;;;;5112023;27;20253;-81
2023/01/20 07:50:12;;;;;;;38.10;18.45;;;1.20;99.90;;;;;;5097728;27;20217;-80
2023/01/20 07:52:38;;;;;;;39.45;19.83;;;1.20;99.90;;;;;;5111729;27;20189;-80
2023/01/20 07:55:04;;;;;;;38.28;19.08;;;1.20;99.90;;;;;;5097924;27;20188;-80
2023/01/20 07:57:30;;;;;;;38.38;18.55;;;1.20;99.90;;;;;;5113878;27;20224;-78
2023/01/20 07:59:55;;;;;;;39.83;19.65;;;1.20;99.90;;;;;;5113631;27;20192;-80
2023/01/20 08:02:21;;;;;;;44.65;21.33;;;1.20;99.90;;;;;;5081797;27;20694;-80
2023/01/20 08:04:47;;;;;;;50.38;21.60;;;1.30;99.90;;;;;;5105810;27;20256;-82
2023/01/20 08:07:13;;;;;;;39.78;20.42;;;1.30;99.90;;;;;;5119905;27;20185;-79
2023/01/20 08:09:40;;;;;;;43.45;21.55;;;1.20;99.90;;;;;;5112747;27;20177;-79
2023/01/20 08:12:06;;;;;;;44.47;21.52;;;1.30;99.90;;;;;;5136808;27;20562;-84
2023/01/20 08:14:32;;;;;;;49.47;21.77;;;1.30;99.90;;;;;;5115457;27;20224;-78
2023/01/20 08:16:59;;;;;;;50.53;21.50;;;1.30;99.90;;;;;;5110988;27;20188;-78
2023/01/20 08:19:28;;;;;;;41.47;20.13;;;1.30;99.90;;;;;;5112468;27;20177;-79
2023/01/20 08:21:54;;;;;;;51.75;21.95;;;1.30;99.90;;;;;;5112193;27;20196;-79
2023/01/20 08:24:20;;;;;;;42.85;21.27;;;1.40;99.90;;;;;;5111565;27;20180;-82
2023/01/20 08:26:45;;;;;;;48.55;21.10;;;1.40;99.90;;;;;;5114383;27;20210;-78
2023/01/20 08:29:11;;;;;;;51.78;23.33;;;1.40;99.90;;;;;;5112625;27;20191;-77
2023/01/20 08:31:37;;;;;;;49.08;23.10;;;1.40;99.90;;;;;;5110685;27;20273;-81
2023/01/20 08:34:04;;;;;;;53.17;23.23;;;1.40;99.90;;;;;;5109851;27;20239;-79
2023/01/20 08:36:32;;;;;;;48.63;23.77;;;1.40;99.90;;;;;;5095767;27;20211;-83
2023/01/20 08:39:03;;;;;;;45.63;22.23;;;1.40;99.90;;;;;;5112602;27;20204;-78
2023/01/20 08:41:32;;;;;;;47.08;22.48;;;1.50;99.90;;;;;;5109134;27;20208;-80
2023/01/20 08:44:01;;;;;;;47.08;23.33;;;1.50;99.90;;;;;;5097768;27;20176;-78
2023/01/20 08:46:27;;;;;;;54.50;23.75;;;1.50;99.90;;;;;;5117083;27;20193;-80
2023/01/20 08:48:53;;;;;;;50.13;23.13;;;1.50;99.90;;;;;;5114157;27;20293;-82
2023/01/20 08:51:23;;;;;;;50.17;24.13;;;1.50;99.90;;;;;;5112649;27;20236;-79
2023/01/20 08:53:49;;;;;;;52.85;24.80;;;1.50;99.90;;;;;;5116996;27;20227;-83
2023/01/20 08:56:16;;;;;;;49.42;24.48;;;1.50;99.90;;;;;;5079729;27;20200;-84
2023/01/20 08:58:43;;;;;;;49.03;24.45;;;1.60;99.90;;;;;;5110671;27;20284;-82
2023/01/20 09:01:30;;;;;;;52.95;25.27;;;1.60;99.90;;;;;;5109297;27;20192;-81
2023/01/20 09:03:56;;;;;;;53.13;24.40;;;1.60;99.90;;;;;;5114600;27;20630;-81
2023/01/20 09:06:23;;;;;;;48.03;22.92;;;1.60;99.90;;;;;;5077141;27;20185;-80
2023/01/20 09:08:49;;;;;;;51.85;25.60;;;1.60;99.90;;;;;;5092847;27;20185;-82
2023/01/20 09:11:20;;;;;;;52.60;23.70;;;1.60;99.90;;;;;;5109211;27;20229;-78
2023/01/20 09:13:47;;;;;;;51.85;25.17;;;1.60;99.90;;;;;;5109412;27;20192;-83
2023/01/20 09:16:16;;;;;;;52.53;23.95;;;1.60;99.90;;;;;;5109871;27;20196;-82
2023/01/20 09:18:43;;;;;;;53.45;24.23;;;1.70;99.90;;;;;;5094085;27;20196;-79
2023/01/20 09:21:10;;;;;;;50.10;23.75;;;1.70;99.90;;;;;;5097268;27;20239;-83
2023/01/20 09:23:37;;;;;;;56.47;24.85;;;1.70;99.90;;;;;;5117039;27;20219;-82
2023/01/20 09:26:06;;;;;;;58.00;25.45;;;1.80;99.90;;;;;;5107260;27;20246;-79
2023/01/20 09:28:32;;;;;;;50.00;23.67;;;1.80;99.90;;;;;;5111164;27;20180;-82
2023/01/20 09:31:05;;;;;;;49.38;23.13;;;1.80;99.90;;;;;;5110262;27;20213;-79
2023/01/20 09:33:37;;;;;;;49.88;22.90;;;1.80;99.90;;;;;;5131082;27;20172;-81
2023/01/20 09:36:07;;;;;;;59.15;25.33;;;1.80;99.90;;;;;;5107978;27;20188;-81
2023/01/20 09:44:41;;;;;;;52.72;24.95;;;1.80;99.90;;;;;;5113188;27;21150;-79
2023/01/20 09:47:24;;;;;;;52.55;24.25;;;1.80;99.90;;;;;;5091418;27;20177;-81
2023/01/20 09:53:14;;;;;;;51.05;24.35;;;1.80;99.90;;;;;;5107557;27;20573;-82
2023/01/20 09:55:52;;;;;;;64.70;26.27;;;1.80;99.90;;;;;;5112543;27;20168;-79
2023/01/20 09:58:45;;;;;;;54.00;24.92;;;1.90;99.90;;;;;;5111348;27;20229;-80
2023/01/20 10:01:55;;;;;;;52.75;25.33;;;1.80;99.90;;;;;;5111887;27;20184;-80
2023/01/20 10:04:31;;;;;;;56.45;23.20;;;1.80;99.90;;;;;;5109038;27;20185;-81
2023/01/20 10:07:15;;;;;;;52.70;22.70;;;1.80;99.90;;;;;;5103636;27;20177;-80
2023/01/20 10:10:04;;;;;;;50.20;21.80;;;1.80;99.90;;;;;;5109615;27;20180;-80
2023/01/20 10:12:35;;;;;;;59.10;23.90;;;1.80;99.90;;;;;;5113236;27;20219;-80
2023/01/20 10:15:07;;;;;;;53.42;23.00;;;1.80;99.90;;;;;;5112725;27;20692;-82
2023/01/20 10:17:38;;;;;;;55.75;23.52;;;1.80;99.90;;;;;;5109305;27;20203;-80
2023/01/20 10:20:09;;;;;;;55.20;25.17;;;1.80;99.90;;;;;;5106549;27;20177;-79
2023/01/20 10:23:04;;;;;;;59.38;26.58;;;1.80;99.90;;;;;;5113338;27;20184;-81
2023/01/20 10:25:53;;;;;;;53.15;23.77;;;1.80;99.90;;;;;;5110526;28;20174;-80
2023/01/20 10:28:32;;;;;;;52.42;23.83;;;1.90;99.90;;;;;;5105635;28;20173;-76
2023/01/20 10:31:03;;;;;;;45.38;21.17;;;1.80;99.90;;;;;;5107910;27;20223;-80
2023/01/20 10:33:34;;;;;;;60.55;24.98;;;1.80;99.90;;;;;;5113256;27;20209;-79
2023/01/20 10:36:00;;;;;;;56.40;24.98;;;1.80;99.90;;;;;;5113635;27;20181;-77
2023/01/20 10:38:48;;;;;;;61.35;26.15;;;1.80;99.90;;;;;;5107808;28;20292;-79
2023/01/20 10:41:25;;;;;;;53.97;22.40;;;1.80;99.90;;;;;;5107775;28;20188;-80
2023/01/20 10:43:51;;;;;;;51.03;23.45;;;1.80;99.90;;;;;;5112923;28;20217;-79
2023/01/20 10:46:26;;;;;;;55.55;24.23;;;1.80;99.90;;;;;;5109281;28;20181;-78
2023/01/20 10:49:35;;;;;;;56.58;24.70;;;1.80;99.90;;;;;;5111402;27;20176;-80
2023/01/20 10:52:22;;;;;;;63.35;26.33;;;1.80;99.90;;;;;;5107898;28;20204;-78
2023/01/20 10:55:09;;;;;;;52.80;22.55;;;1.90;99.90;;;;;;5111527;28;20172;-82
2023/01/20 10:57:37;;;;;;;61.33;26.23;;;1.80;99.90;;;;;;5118429;27;20212;-81
2023/01/20 11:00:09;;;;;;;54.95;24.17;;;1.80;99.90;;;;;;5117521;27;20239;-79
2023/01/20 11:02:36;;;;;;;57.97;24.40;;;1.80;99.90;;;;;;5112497;27;20185;-85
2023/01/20 11:05:20;;;;;;;61.53;26.27;;;1.80;99.90;;;;;;5111445;27;20272;-83
2023/01/20 11:07:48;;;;;;;59.88;25.50;;;1.90;99.90;;;;;;5113561;27;20257;-83
2023/01/20 11:10:19;;;;;;;56.53;24.95;;;1.90;99.90;;;;;;5112411;27;20273;-77
2023/01/20 11:12:49;;;;;;;56.92;25.70;;;1.90;99.90;;;;;;5109533;27;20238;-79
2023/01/20 11:15:37;;;;;;;59.00;24.13;;;1.90;99.90;;;;;;5114888;27;20212;-81
2023/01/20 11:18:14;;;;;;;55.10;24.42;;;1.90;99.90;;;;;;5108028;27;20629;-77
2023/01/20 11:20:56;;;;;;;60.08;25.02;;;2.00;99.90;;;;;;5112764;27;20686;-81
2023/01/20 11:23:39;;;;;;;54.10;22.35;;;1.90;99.90;;;;;;5117900;27;20272;-76
2023/01/20 11:26:35;;;;;;;54.38;24.38;;;1.90;99.90;;;;;;5115619;27;20351;-76
2023/01/20 11:29:10;;;;;;;61.47;26.17;;;1.90;99.90;;;;;;5111443;27;20185;-80
2023/01/20 11:31:42;;;;;;;56.90;23.50;;;1.90;99.90;;;;;;5111640;27;20212;-75
2023/01/20 11:34:25;;;;;;;57.63;22.95;;;1.90;99.90;;;;;;5120137;27;20925;-78
2023/01/20 11:37:18;;;;;;;49.28;20.95;;;1.80;99.90;;;;;;5098106;27;20311;-78
2023/01/20 11:39:53;;;;;;;55.17;22.58;;;1.90;99.90;;;;;;5112222;27;20773;-76
2023/01/20 11:42:22;;;;;;;56.10;23.92;;;1.90;99.90;;;;;;5112246;27;20284;-79
2023/01/20 11:44:50;;;;;;;55.50;23.23;;;1.90;99.90;;;;;;5115886;27;20877;-79
2023/01/20 11:47:57;;;;;;;58.85;24.58;;;1.90;99.90;;;;;;5114024;27;20227;-79
2023/01/20 11:50:34;;;;;;;47.65;20.52;;;1.90;99.90;;;;;;5104772;27;20231;-76
2023/01/20 11:53:21;;;;;;;59.65;23.88;;;1.90;99.90;;;;;;5113647;27;20202;-81
2023/01/20 11:55:58;;;;;;;60.60;25.17;;;1.80;99.90;;;;;;5112968;27;20245;-82
2023/01/20 11:58:46;;;;;;;54.80;24.20;;;1.90;99.90;;;;;;5111460;27;20220;-80
2023/01/20 12:01:27;;;;;;;55.67;23.83;;;1.90;99.90;;;;;;5111190;27;20227;-78
2023/01/20 12:04:28;;;;;;;53.83;22.75;;;1.90;99.90;;;;;;5113094;27;20591;-78
2023/01/20 12:07:06;;;;;;;52.92;20.05;;;1.90;99.90;;;;;;5113595;27;20224;-81
2023/01/20 12:09:45;;;;;;;49.55;19.88;;;1.90;99.90;;;;;;5111900;27;20233;-77
2023/01/20 12:12:37;;;;;;;59.65;24.73;;;1.90;99.90;;;;;;5095588;27;20215;-83
2023/01/20 12:15:11;;;;;;;54.47;23.23;;;1.90;99.90;;;;;;5113946;27;20184;-80
2023/01/20 12:17:55;;;;;;;60.92;24.08;;;1.90;99.90;;;;;;5111725;27;20384;-77
2023/01/20 12:20:44;;;;;;;57.30;24.73;;;1.90;99.90;;;;;;5113329;27;20189;-83
2023/01/20 12:23:54;;;;;;;59.45;24.83;;;1.90;99.90;;;;;;5108913;27;20181;-78
2023/01/20 12:26:22;;;;;;;62.97;24.55;;;1.90;99.90;;;;;;5102313;27;20303;-76
2023/01/20 12:29:03;;;;;;;64.82;24.67;;;1.90;99.90;;;;;;5111618;27;20205;-80
2023/01/20 12:31:30;;;;;;;58.75;24.65;;;2.00;99.90;;;;;;5107067;27;20208;-78
2023/01/20 12:34:01;;;;;;;52.15;22.58;;;1.90;99.90;;;;;;5110814;27;20181;-77
2023/01/20 12:36:56;;;;;;;55.03;23.58;;;2.00;99.90;;;;;;5110610;27;20188;-77
2023/01/20 12:39:32;;;;;;;61.30;25.40;;;2.00;99.90;;;;;;5112749;27;20271;-74
2023/01/20 12:42:09;;;;;;;54.70;24.20;;;2.00;99.90;;;;;;5109260;27;20179;-79
2023/01/20 12:44:57;;;;;;;53.70;22.80;;;2.00;99.90;;;;;;5106897;27;20306;-79
2023/01/20 12:47:44;;;;;;;52.22;22.35;;;2.00;99.90;;;;;;5109758;27;20165;-76
2023/01/20 12:50:25;;;;;;;56.17;22.05;;;2.00;99.90;;;;;;5113207;27;20188;-75
2023/01/20 12:53:29;;;;;;;51.38;21.15;;;2.00;99.90;;;;;;5096401;27;20412;-78
2023/01/20 12:56:23;;;;;;;45.60;20.27;;;1.90;99.90;;;;;;5112562;27;20176;-78
2023/01/20 12:58:57;;;;;;;57.33;22.35;;;1.90;99.90;;;;;;5130911;27;20228;-78
2023/01/20 13:01:59;;;;;;;52.33;23.52;;;1.90;99.90;;;;;;5111404;27;22190;-79
2023/01/20 13:04:43;;;;;;;57.25;22.67;;;1.90;99.90;;;;;;5107892;27;20196;-76
2023/01/20 13:07:30;;;;;;;52.70;22.67;;;2.00;99.90;;;;;;5110543;27;20188;-80
2023/01/20 13:10:24;;;;;;;57.15;23.70;;;2.00;99.90;;;;;;5113326;27;20193;-79
2023/01/20 13:13:19;;;;;;;56.42;22.70;;;2.00;99.90;;;;;;5110679;27;20177;-78
2023/01/20 13:15:53;;;;;;;56.28;22.52;;;2.00;99.90;;;;;;5109213;27;20516;-78